Time;durP1;ratioP1;P1;durP2;ratioP2;P2;SDS_P1;SDS_P2;PMS_P1;PMS_P2;Temp;Humidity;BMP_temperature;BMP_pressure;BME280_temperature;BME280_humidity;BME280_pressure;Samples;Min_cycle;Max_cycle;Signal;HPM_P1;HPM_P2
2022/12/03 00:01:37;;;;;;;12.48;8.73;;;;;;;6.00;100.00;100842.16;5013338;28;20046;-66
2022/12/03 00:04:03;;;;;;;11.65;7.75;;;;;;;6.22;100.00;100895.28;5011723;28;20037;-67
2022/12/03 00:06:28;;;;;;;11.93;8.02;;;;;;;6.05;100.00;100868.28;5011890;28;20412;-66
2022/12/03 00:08:53;;;;;;;14.32;8.75;;;;;;;6.19;100.00;100906.19;5013289;28;20079;-66
2022/12/03 00:11:19;;;;;;;10.48;7.65;;;;;;;6.18;100.00;100869.16;5013062;28;20033;-66
2022/12/03 00:13:44;;;;;;;12.77;8.70;;;;;;;6.29;100.00;100905.41;5011596;28;20539;-66
2022/12/03 00:16:10;;;;;;;11.80;8.23;;;;;;;6.13;100.00;100851.50;5012552;28;20034;-67
2022/12/03 00:18:35;;;;;;;10.77;8.30;;;;;;;6.28;100.00;100912.97;5012749;28;20034;-67
2022/12/03 00:21:01;;;;;;;13.15;8.70;;;;;;;6.29;100.00;100912.97;5013004;28;20096;-67
2022/12/03 00:23:26;;;;;;;12.25;9.73;;;;;;;6.24;100.00;100918.84;5011918;28;20033;-67
2022/12/03 00:25:52;;;;;;;15.27;9.02;;;;;;;6.03;100.00;100864.06;5012892;28;20096;-67
2022/12/03 00:28:17;;;;;;;12.07;9.63;;;;;;;5.89;100.00;100858.09;5012780;28;20029;-67
2022/12/03 00:30:43;;;;;;;13.43;8.77;;;;;;;6.43;100.00;100908.84;5012541;28;20036;-67
2022/12/03 00:33:08;;;;;;;14.52;10.02;;;;;;;6.09;100.00;100894.38;5012903;28;20033;-68
2022/12/03 00:35:33;;;;;;;14.07;9.88;;;;;;;6.21;100.00;100907.06;5012630;28;20038;-66
2022/12/03 00:37:59;;;;;;;14.45;10.10;;;;;;;6.19;100.00;100886.00;5012363;28;20068;-66
2022/12/03 00:40:24;;;;;;;14.45;9.85;;;;;;;6.40;100.00;100897.88;5010877;28;20828;-67
2022/12/03 00:42:50;;;;;;;12.95;10.60;;;;;;;6.24;100.00;100886.84;5012588;28;20048;-67
2022/12/03 00:45:15;;;;;;;13.32;10.00;;;;;;;5.85;100.00;100861.44;5011292;28;20033;-67
2022/12/03 00:47:41;;;;;;;11.85;9.93;;;;;;;6.08;100.00;100873.31;5011176;28;20087;-67
2022/12/03 00:50:07;;;;;;;11.45;10.05;;;;;;;6.32;100.00;100917.22;5012727;28;20030;-67
2022/12/03 00:52:32;;;;;;;12.15;9.93;;;;;;;6.34;100.00;100925.63;5012227;28;20045;-66
2022/12/03 00:54:58;;;;;;;14.23;10.60;;;;;;;6.26;100.00;100924.75;5012775;28;20476;-66
2022/12/03 00:57:23;;;;;;;12.77;10.10;;;;;;;5.96;100.00;100869.91;5012686;28;20416;-67
2022/12/03 00:59:49;;;;;;;14.07;9.95;;;;;;;6.21;100.00;100912.09;5012082;28;20033;-67
2022/12/03 01:02:14;;;;;;;12.70;10.30;;;;;;;6.18;100.00;100926.41;5012635;28;20032;-67
2022/12/03 01:04:39;;;;;;;13.57;9.52;;;;;;;6.28;100.00;100926.41;5012260;28;20116;-66
2022/12/03 01:07:05;;;;;;;13.57;10.90;;;;;;;6.28;100.00;100935.69;5011089;28;20106;-67
2022/12/03 01:09:31;;;;;;;13.95;10.57;;;;;;;5.80;100.00;100865.59;5012207;28;20026;-67
2022/12/03 01:11:56;;;;;;;15.07;10.63;;;;;;;6.25;100.00;100939.03;5012031;28;20488;-67
2022/12/03 01:14:22;;;;;;;12.13;9.82;;;;;;;6.12;100.00;100891.84;5012453;28;20036;-67
2022/12/03 01:16:47;;;;;;;14.23;10.80;;;;;;;6.23;100.00;100947.44;5012090;28;20040;-67
2022/12/03 01:19:14;;;;;;;12.20;9.77;;;;;;;6.25;100.00;100941.56;5011565;28;20107;-67
2022/12/03 01:21:45;;;;;;;12.68;10.40;;;;;;;6.40;100.00;100950.91;5012015;28;20037;-67
2022/12/03 01:24:11;;;;;;;13.33;10.00;;;;;;;6.40;100.00;100935.75;5010969;28;20029;-67
2022/12/03 01:26:37;;;;;;;13.95;10.02;;;;;;;6.33;100.00;100946.66;5011784;28;20637;-66
2022/12/03 01:29:03;;;;;;;14.32;10.40;;;;;;;6.29;100.00;100937.38;5011794;28;20084;-66
2022/12/03 01:34:12;;;;;;;13.65;11.10;;;;;;;6.09;100.00;100922.13;5011692;28;20131;-67
2022/12/03 01:36:38;;;;;;;12.20;10.15;;;;;;;6.18;100.00;100942.34;5011514;28;20073;-67
2022/12/03 01:39:03;;;;;;;13.68;10.63;;;;;;;6.41;100.00;100939.97;5011576;28;20448;-67
2022/12/03 01:41:31;;;;;;;12.68;10.05;;;;;;;6.07;100.00;100888.47;5009942;28;20025;-67
2022/12/03 01:43:57;;;;;;;13.60;10.82;;;;;;;5.96;100.00;100905.25;5011583;28;20033;-66
2022/12/03 01:46:30;;;;;;;16.52;11.68;;;;;;;5.91;100.00;100906.88;5011046;28;20034;-66
2022/12/03 01:48:56;;;;;;;15.90;11.57;;;;;;;6.22;100.00;100936.50;5011656;28;20141;-65
2022/12/03 01:51:22;;;;;;;12.50;10.57;;;;;;;6.28;100.00;100943.28;5010986;28;20112;-66
2022/12/03 01:53:47;;;;;;;15.77;12.10;;;;;;;6.34;100.00;100949.19;5011435;28;20048;-67
2022/12/03 01:56:17;;;;;;;16.48;12.15;;;;;;;6.21;100.00;100957.53;5011317;28;20440;-66
2022/12/03 01:58:44;;;;;;;14.98;11.82;;;;;;;6.19;100.00;100961.72;5010295;28;20038;-66
2022/12/03 02:01:16;;;;;;;14.57;11.40;;;;;;;5.71;100.00;100863.84;5009925;28;20034;-67
2022/12/03 02:03:43;;;;;;;15.88;11.02;;;;;;;6.33;100.00;100954.22;5011414;28;20513;-67
2022/12/03 02:06:17;;;;;;;13.65;11.60;;;;;;;6.33;100.00;100941.59;5010930;28;20092;-67
2022/12/03 02:08:43;;;;;;;15.68;11.10;;;;;;;5.99;100.00;100901.06;5011255;28;20029;-67
2022/12/03 02:11:27;;;;;;;16.40;12.45;;;;;;;6.29;100.00;100963.47;5009396;28;20034;-68
2022/12/03 02:14:00;;;;;;;16.90;11.88;;;;;;;6.20;100.00;100907.06;5011162;28;20029;-67
2022/12/03 02:16:25;;;;;;;16.35;11.07;;;;;;;6.24;100.00;100949.97;5009916;28;20045;-66
2022/12/03 02:18:51;;;;;;;14.00;10.98;;;;;;;6.09;100.00;100944.84;5010367;28;20532;-66
2022/12/03 02:21:43;;;;;;;13.88;10.02;;;;;;;6.36;100.00;100962.66;5010892;28;20030;-67
2022/12/03 02:24:27;;;;;;;19.58;10.48;;;;;;;6.35;100.00;100955.94;5009667;28;20030;-66
2022/12/03 02:26:53;;;;;;;12.20;10.00;;;;;;;6.15;100.00;100914.59;5009506;28;20041;-66
2022/12/03 02:29:18;;;;;;;14.82;10.40;;;;;;;6.19;100.00;100968.44;5010291;28;20489;-67
2022/12/03 02:31:44;;;;;;;12.18;9.95;;;;;;;6.46;100.00;100966.06;5011145;28;20034;-66
2022/12/03 02:34:10;;;;;;;15.68;10.57;;;;;;;6.26;100.00;100965.16;5010251;28;20037;-67
2022/12/03 02:36:37;;;;;;;12.63;9.95;;;;;;;5.99;100.00;100903.56;5010725;28;20058;-67
2022/12/03 02:39:04;;;;;;;15.35;10.93;;;;;;;6.13;100.00;100933.94;5010394;28;20129;-67
2022/12/03 02:44:14;;;;;;;14.18;10.55;;;;;;;6.30;100.00;100956.75;5010472;28;20076;-67
2022/12/03 02:46:39;;;;;;;12.68;9.98;;;;;;;6.33;100.00;100956.75;5008734;28;20065;-67
2022/12/03 02:49:05;;;;;;;19.55;12.57;;;;;;;5.92;100.00;100929.59;5010641;28;20041;-66
2022/12/03 02:51:32;;;;;;;16.13;10.68;;;;;;;6.20;100.00;100965.09;5009251;28;20030;-66
2022/12/03 02:53:58;;;;;;;15.25;10.85;;;;;;;6.11;100.00;100960.84;5010865;28;20084;-67
2022/12/03 02:56:28;;;;;;;17.95;11.25;;;;;;;6.18;100.00;100961.72;5010525;28;20116;-66
2022/12/03 02:58:57;;;;;;;18.00;11.18;;;;;;;5.92;100.00;100909.41;5010408;28;20040;-67
2022/12/03 03:01:23;;;;;;;16.05;10.57;;;;;;;6.19;100.00;100959.22;5009814;28;20034;-66
2022/12/03 03:03:50;;;;;;;16.27;11.32;;;;;;;6.26;100.00;100955.03;5010753;28;20034;-66
2022/12/03 03:06:17;;;;;;;14.27;10.25;;;;;;;6.28;100.00;100963.47;5010132;28;20047;-66
2022/12/03 03:08:43;;;;;;;16.52;10.68;;;;;;;5.93;100.00;100911.09;5010582;28;20084;-66
2022/12/03 03:11:08;;;;;;;14.90;11.40;;;;;;;6.14;100.00;100948.22;5010063;28;20030;-66
2022/12/03 03:13:34;;;;;;;17.40;11.68;;;;;;;6.20;100.00;100955.00;5010138;28;20076;-66
2022/12/03 03:16:04;;;;;;;19.15;11.85;;;;;;;6.18;100.00;100947.41;5010272;28;20064;-66
2022/12/03 03:18:31;;;;;;;17.92;11.98;;;;;;;6.02;100.00;100902.75;5010470;28;20095;-67
2022/12/03 03:20:57;;;;;;;17.60;12.70;;;;;;;5.94;100.00;100914.50;5010353;28;20030;-66
2022/12/03 03:23:24;;;;;;;18.73;12.70;;;;;;;6.29;100.00;100966.00;5010110;28;20037;-66
2022/12/03 03:26:00;;;;;;;20.20;13.50;;;;;;;6.39;100.00;100967.72;5010452;28;20124;-66
2022/12/03 03:28:27;;;;;;;21.50;13.43;;;;;;;5.82;100.00;100874.00;5009862;28;20034;-66
2022/12/03 03:30:53;;;;;;;16.35;11.85;;;;;;;6.24;100.00;100927.25;5009876;28;20149;-66
2022/12/03 03:33:19;;;;;;;21.98;13.70;;;;;;;6.24;100.00;100921.38;5009651;28;20056;-66
2022/12/03 03:35:47;;;;;;;17.02;12.93;;;;;;;6.37;100.00;100969.41;5010026;28;20459;-66
2022/12/03 03:38:13;;;;;;;18.10;12.50;;;;;;;6.16;100.00;100933.13;5009675;28;20030;-66
2022/12/03 03:40:39;;;;;;;22.00;13.85;;;;;;;6.44;100.00;100965.25;5008381;28;20050;-66
2022/12/03 03:43:05;;;;;;;20.42;13.77;;;;;;;6.21;100.00;100947.44;5010114;28;20392;-66
2022/12/03 03:45:32;;;;;;;20.10;12.00;;;;;;;6.46;100.00;100959.34;5010167;28;20030;-66
2022/12/03 03:47:58;;;;;;;25.60;15.75;;;;;;;5.96;100.00;100905.25;5009508;28;20497;-66
2022/12/03 03:50:25;;;;;;;23.92;16.13;;;;;;;6.36;100.00;100976.97;5009483;28;20370;-66
2022/12/03 03:52:51;;;;;;;20.50;13.55;;;;;;;6.06;100.00;100922.94;5008305;28;20030;-66
2022/12/03 03:55:19;;;;;;;21.27;13.57;;;;;;;6.05;100.00;100910.31;5009790;28;20040;-66
2022/12/03 03:57:45;;;;;;;23.58;13.82;;;;;;;6.22;100.00;100923.88;5009836;28;20493;-66
2022/12/03 04:00:11;;;;;;;20.95;14.38;;;;;;;6.16;100.00;100916.25;5013358;28;20113;-66
2022/12/03 04:02:36;;;;;;;24.27;14.77;;;;;;;6.18;100.00;100914.59;5012405;28;20030;-66
2022/12/03 04:05:02;;;;;;;22.75;14.30;;;;;;;6.58;100.00;100976.22;5013141;28;20033;-66
2022/12/03 04:07:28;;;;;;;21.45;13.93;;;;;;;6.33;100.00;100972.75;5012131;28;20479;-66
2022/12/03 04:09:53;;;;;;;21.65;13.90;;;;;;;6.40;100.00;100982.03;5013151;28;20491;-66
2022/12/03 04:15:04;;;;;;;25.30;13.77;;;;;;;5.76;100.00;100887.44;5013156;28;20100;-66
2022/12/03 04:17:29;;;;;;;26.15;14.10;;;;;;;6.26;100.00;100982.81;5011889;28;20069;-66
2022/12/03 04:19:55;;;;;;;22.45;13.50;;;;;;;6.04;100.00;100927.16;5013354;28;20057;-66
2022/12/03 04:30:32;;;;;;;23.08;14.80;;;;;;;6.44;100.00;100988.78;5012916;28;20037;-67
2022/12/03 04:35:41;;;;;;;29.35;15.60;;;;;;;6.38;100.00;101019.06;5012822;28;20475;-66
2022/12/03 04:38:07;;;;;;;22.80;14.40;;;;;;;6.04;100.00;100933.91;5012787;28;20038;-67
2022/12/03 04:43:17;;;;;;;23.80;15.40;;;;;;;6.43;100.00;100994.69;5010133;28;20104;-67
2022/12/03 04:45:42;;;;;;;25.42;15.77;;;;;;;6.04;100.00;100944.81;4992862;28;20468;-67
2022/12/03 04:48:23;;;;;;;21.13;14.52;;;;;;;6.29;100.00;100988.72;4959793;28;20054;-67
2022/12/03 04:50:49;;;;;;;24.40;16.23;;;;;;;6.34;100.00;101002.19;4993239;28;20088;-66
2022/12/03 04:53:14;;;;;;;21.17;15.32;;;;;;;5.95;100.00;100894.31;4992844;28;20113;-66
2022/12/03 04:55:39;;;;;;;26.20;16.55;;;;;;;6.44;100.00;101008.19;4991393;28;20035;-66
2022/12/03 04:58:05;;;;;;;21.55;14.70;;;;;;;6.43;100.00;100991.31;4992312;28;20077;-66
2022/12/03 05:00:30;;;;;;;20.52;14.65;;;;;;;6.55;100.00;101009.06;4993022;28;20033;-67
2022/12/03 05:02:56;;;;;;;22.08;14.95;;;;;;;6.20;100.00;100983.59;4991660;28;20497;-66
2022/12/03 05:05:21;;;;;;;21.08;15.07;;;;;;;6.35;100.00;100960.97;4992553;28;20038;-67
2022/12/03 05:07:47;;;;;;;21.52;14.95;;;;;;;6.48;100.00;101009.84;4992359;28;20941;-65
2022/12/03 05:10:12;;;;;;;19.85;13.68;;;;;;;6.44;100.00;101015.75;4992914;28;20117;-67
2022/12/03 05:12:37;;;;;;;18.75;12.52;;;;;;;6.46;100.00;100998.91;4992659;28;20353;-67
2022/12/03 05:15:05;;;;;;;21.45;14.40;;;;;;;6.08;100.00;100950.75;4992440;28;20449;-67
2022/12/03 05:17:30;;;;;;;17.70;13.20;;;;;;;6.59;100.00;101016.66;4992548;28;20034;-66
2022/12/03 05:22:40;;;;;;;20.75;12.77;;;;;;;6.27;100.00;100999.63;5008369;28;20041;-66
2022/12/03 05:25:06;;;;;;;19.67;12.85;;;;;;;6.36;100.00;101027.47;4992335;28;20413;-67
2022/12/03 05:27:31;;;;;;;17.52;11.98;;;;;;;6.50;100.00;101021.66;4992609;28;20042;-65
2022/12/03 05:29:57;;;;;;;19.20;12.77;;;;;;;6.28;100.00;101014.78;4992205;28;20030;-68
2022/12/03 05:32:22;;;;;;;19.45;13.30;;;;;;;6.36;100.00;101017.38;4992476;28;20029;-67
2022/12/03 05:34:48;;;;;;;17.20;11.55;;;;;;;6.25;100.00;101029.94;4990651;28;20049;-67
2022/12/03 05:37:13;;;;;;;17.00;11.77;;;;;;;6.33;100.00;101009.78;4992183;28;20042;-67
2022/12/03 05:39:38;;;;;;;17.83;11.60;;;;;;;6.05;100.00;100959.13;4992222;28;20332;-67
2022/12/03 05:44:48;;;;;;;17.58;12.38;;;;;;;6.92;100.00;100963.72;4992313;28;20104;-68
2022/12/03 05:47:13;;;;;;;19.35;12.70;;;;;;;6.64;100.00;101030.16;4992235;28;20482;-67
2022/12/03 05:49:39;;;;;;;16.38;12.57;;;;;;;6.15;100.00;100960.03;4993694;28;20049;-67
2022/12/03 05:52:04;;;;;;;18.67;12.63;;;;;;;6.50;100.00;101030.91;5002473;28;20431;-66
2022/12/03 05:54:30;;;;;;;14.80;10.43;;;;;;;6.40;100.00;101036.78;5007085;28;20113;-66
2022/12/03 05:56:55;;;;;;;14.65;10.05;;;;;;;6.58;100.00;101040.22;5010062;28;20128;-67
2022/12/03 05:59:21;;;;;;;17.13;10.98;;;;;;;6.39;100.00;100980.38;5003734;28;20492;-67
2022/12/03 06:01:46;;;;;;;26.38;15.82;;;;;;;6.41;100.00;100993.00;5004155;28;20034;-68
2022/12/03 06:04:12;;;;;;;27.17;17.35;;;;;;;6.69;100.00;101041.16;5011305;28;20026;-67
2022/12/03 06:06:37;;;;;;;31.90;18.20;;;;;;;6.55;100.00;101029.25;5009659;28;20030;-68
2022/12/03 06:09:03;;;;;;;20.27;12.70;;;;;;;6.45;100.00;101041.00;5009764;28;20034;-67
2022/12/03 06:11:29;;;;;;;17.67;11.13;;;;;;;6.50;100.00;101034.28;5011415;28;20026;-66
2022/12/03 06:13:54;;;;;;;19.33;12.13;;;;;;;6.29;100.00;100993.78;5003115;28;20236;-66
2022/12/03 06:16:20;;;;;;;17.05;11.80;;;;;;;6.49;100.00;101051.97;5002986;28;20087;-67
2022/12/03 06:18:45;;;;;;;20.25;13.45;;;;;;;6.53;100.00;101029.25;5009219;28;20176;-68
2022/12/03 06:21:11;;;;;;;17.27;11.75;;;;;;;6.51;100.00;101035.13;5008914;28;20171;-68
2022/12/03 06:23:43;;;;;;;18.48;12.52;;;;;;;6.55;100.00;101004.00;5010927;28;20105;-68
2022/12/03 06:26:09;;;;;;;24.45;16.88;;;;;;;6.52;100.00;101009.03;5010914;28;20041;-67
2022/12/03 06:28:34;;;;;;;22.30;14.80;;;;;;;6.27;100.00;101002.16;5010721;28;20052;-67
2022/12/03 06:31:00;;;;;;;25.00;17.45;;;;;;;6.85;100.00;101059.75;5007195;28;20096;-67
2022/12/03 06:33:25;;;;;;;20.92;12.32;;;;;;;6.48;100.00;101050.25;4989889;28;20544;-67
2022/12/03 06:35:51;;;;;;;15.98;10.18;;;;;;;6.50;100.00;101051.13;4990711;28;20038;-67
2022/12/03 06:38:16;;;;;;;16.33;11.52;;;;;;;6.47;100.00;101066.25;4989161;28;20110;-67
2022/12/03 06:40:41;;;;;;;16.98;10.85;;;;;;;5.96;100.00;100971.69;4990781;28;20057;-67
2022/12/03 06:43:08;;;;;;;20.60;14.07;;;;;;;6.50;100.00;101048.59;4991088;28;20476;-67
2022/12/03 06:45:33;;;;;;;24.70;15.60;;;;;;;6.36;100.00;101013.16;4989909;28;20462;-66
2022/12/03 06:47:59;;;;;;;22.63;16.13;;;;;;;6.04;100.00;100972.56;4997612;28;20030;-66
2022/12/03 06:50:24;;;;;;;18.67;13.13;;;;;;;6.34;100.00;101014.81;5010425;28;20044;-67
2022/12/03 06:52:49;;;;;;;20.17;14.43;;;;;;;6.39;100.00;101010.66;5009392;28;20034;-67
2022/12/03 06:55:15;;;;;;;15.98;10.75;;;;;;;6.61;100.00;101060.47;5010494;28;20160;-67
2022/12/03 06:57:40;;;;;;;21.30;11.60;;;;;;;6.64;100.00;101073.09;5008930;28;20513;-67
2022/12/03 07:00:07;;;;;;;14.23;9.30;;;;;;;6.34;100.00;101034.22;5009899;28;20052;-66
2022/12/03 07:02:33;;;;;;;12.82;9.07;;;;;;;6.91;100.00;101078.28;5008909;28;20034;-67
2022/12/03 07:04:58;;;;;;;11.35;8.93;;;;;;;6.93;100.00;101086.72;5010241;28;20140;-67
2022/12/03 07:07:24;;;;;;;15.02;11.50;;;;;;;6.46;100.00;101004.78;5008590;28;20029;-67
2022/12/03 07:09:49;;;;;;;14.90;10.38;;;;;;;6.53;100.00;101036.84;5010311;28;20425;-67
2022/12/03 07:12:15;;;;;;;13.68;9.98;;;;;;;6.75;100.00;101076.53;5010138;28;20040;-67
2022/12/03 07:14:40;;;;;;;14.57;10.80;;;;;;;6.75;100.00;101079.06;5009807;28;20029;-67
2022/12/03 07:17:06;;;;;;;12.57;9.82;;;;;;;7.04;100.00;101074.13;5008856;28;20033;-67
2022/12/03 07:19:31;;;;;;;14.93;11.30;;;;;;;6.87;100.00;101083.34;5010577;28;20033;-67
2022/12/03 07:21:56;;;;;;;11.32;8.63;;;;;;;6.86;100.00;101074.91;5009809;28;20516;-67
2022/12/03 07:24:22;;;;;;;13.50;10.57;;;;;;;6.89;100.00;101094.31;5009941;28;20551;-67
2022/12/03 07:26:47;;;;;;;24.45;16.48;;;;;;;6.63;100.00;101033.53;5010302;28;20045;-67
2022/12/03 07:29:13;;;;;;;16.65;10.93;;;;;;;6.57;100.00;101032.66;5010483;28;20026;-67
2022/12/03 07:31:38;;;;;;;14.55;10.15;;;;;;;6.99;100.00;101099.38;5011987;28;20080;-69
2022/12/03 07:34:03;;;;;;;13.98;10.52;;;;;;;6.62;100.00;101039.41;5013952;28;20053;-67
2022/12/03 07:36:29;;;;;;;14.27;10.23;;;;;;;6.92;100.00;101100.22;5008317;28;20044;-67
2022/12/03 07:38:54;;;;;;;14.75;11.05;;;;;;;6.52;100.00;101012.41;5013322;28;20050;-67
2022/12/03 07:41:20;;;;;;;16.73;11.73;;;;;;;7.14;100.00;101105.34;5012645;28;20037;-66
2022/12/03 07:43:45;;;;;;;16.67;12.30;;;;;;;7.09;100.00;101102.78;5013678;28;20080;-67
2022/12/03 07:46:11;;;;;;;20.77;16.08;;;;;;;7.08;100.00;101102.78;5013029;28;20490;-67
2022/12/03 07:48:36;;;;;;;16.92;13.20;;;;;;;6.78;100.00;101113.59;5013700;28;20089;-67
2022/12/03 07:51:02;;;;;;;23.98;21.25;;;;;;;6.66;100.00;101063.84;5012883;28;20026;-68
2022/12/03 07:53:27;;;;;;;18.75;16.05;;;;;;;6.96;100.00;101113.69;5003823;28;20033;-67
2022/12/03 07:55:52;;;;;;;20.65;16.25;;;;;;;7.07;100.00;101107.03;5011254;28;20081;-67
2022/12/03 07:58:18;;;;;;;18.15;15.63;;;;;;;6.95;100.00;101120.44;5012908;28;20041;-67
2022/12/03 08:00:43;;;;;;;21.80;17.48;;;;;;;6.96;100.00;101117.09;5000311;28;20110;-67
2022/12/03 08:03:10;;;;;;;19.48;15.38;;;;;;;7.45;100.00;101105.47;4993994;28;20085;-68
2022/12/03 08:05:35;;;;;;;20.65;16.45;;;;;;;7.20;100.00;101120.53;4993574;28;20085;-68
2022/12/03 08:08:01;;;;;;;17.90;13.75;;;;;;;6.67;100.00;101067.22;4993179;28;20533;-68
2022/12/03 08:10:26;;;;;;;17.40;13.27;;;;;;;7.21;100.00;101117.19;4995323;28;20050;-68
2022/12/03 08:12:52;;;;;;;17.98;13.40;;;;;;;7.08;100.00;101106.19;5011308;28;20036;-67
2022/12/03 08:15:22;;;;;;;16.13;12.38;;;;;;;7.10;100.00;101126.41;5010784;28;20183;-68
2022/12/03 08:17:54;;;;;;;16.45;12.40;;;;;;;6.98;100.00;101080.03;5011357;28;20038;-68
2022/12/03 08:20:23;;;;;;;16.77;12.40;;;;;;;7.34;100.00;101113.88;5011396;28;20400;-67
2022/12/03 08:22:50;;;;;;;17.40;13.13;;;;;;;7.36;100.00;101119.78;5011991;28;20104;-68
2022/12/03 08:25:30;;;;;;;18.25;13.55;;;;;;;7.37;100.00;101114.72;5013571;28;20034;-68
2022/12/03 08:28:13;;;;;;;15.77;12.38;;;;;;;7.16;100.00;101055.63;5012084;28;20033;-69
2022/12/03 08:30:40;;;;;;;17.65;12.38;;;;;;;8.13;100.00;101112.31;5013300;28;20053;-67
2022/12/03 08:33:15;;;;;;;16.55;12.30;;;;;;;7.38;100.00;101107.97;5011478;28;20470;-66
2022/12/03 08:35:46;;;;;;;15.10;11.23;;;;;;;7.58;100.00;101103.81;5011358;28;20029;-66
2022/12/03 08:38:12;;;;;;;16.88;11.85;;;;;;;7.37;100.00;101112.19;5011206;28;20042;-67
2022/12/03 08:40:44;;;;;;;15.15;11.90;;;;;;;7.38;100.00;101107.97;5012341;28;20061;-68
2022/12/03 08:43:25;;;;;;;16.65;11.70;;;;;;;7.01;100.00;101069.91;5011450;28;20033;-67
2022/12/03 08:45:55;;;;;;;10.35;8.00;;;;;;;7.15;100.00;101059.00;5012775;28;20401;-68
2022/12/03 08:48:37;;;;;;;14.18;11.32;;;;;;;7.31;100.00;101094.44;5011934;28;20041;-68
2022/12/03 08:51:11;;;;;;;19.30;14.30;;;;;;;7.36;100.00;101110.50;5009884;28;20038;-66
2022/12/03 08:53:44;;;;;;;18.42;12.43;;;;;;;7.32;100.00;101107.94;5011737;28;20030;-65
2022/12/03 08:56:27;;;;;;;17.50;13.43;;;;;;;7.20;100.00;101069.97;5012428;28;20030;-66
2022/12/03 08:58:55;;;;;;;22.88;11.73;;;;;;;9.02;100.00;101104.59;5012781;28;20133;-65
2022/12/03 09:01:28;;;;;;;16.90;11.25;;;;;;;7.94;100.00;101113.16;5013024;28;20026;-67
2022/12/03 09:03:57;;;;;;;22.80;13.65;;;;;;;7.98;100.00;101108.09;5012416;28;20030;-66
2022/12/03 09:06:22;;;;;;;17.70;12.60;;;;;;;7.76;100.00;101048.19;5011672;28;20587;-66
2022/12/03 09:08:47;;;;;;;16.35;11.40;;;;;;;8.64;100.00;101057.38;5012412;28;20026;-66
2022/12/03 09:11:13;;;;;;;17.35;13.23;;;;;;;7.84;100.00;101114.84;5012404;28;20033;-69
2022/12/03 09:13:39;;;;;;;31.60;26.55;;;;;;;6.98;100.00;101011.75;5010401;28;20041;-70
2022/12/03 09:16:05;;;;;;;19.83;15.20;;;;;;;7.20;100.00;101049.75;5012459;28;20561;-70
2022/12/03 09:18:31;;;;;;;23.55;16.60;;;;;;;7.70;100.00;101106.38;5012272;28;20080;-69
2022/12/03 09:20:56;;;;;;;22.73;16.67;;;;;;;7.28;100.00;101063.25;5011743;28;20464;-69
2022/12/03 09:23:26;;;;;;;23.38;17.00;;;;;;;7.34;100.00;101091.94;5012873;28;20104;-74
2022/12/03 09:25:53;;;;;;;26.58;19.30;;;;;;;7.39;100.00;101094.50;5012632;28;20547;-70
2022/12/03 09:28:21;;;;;;;27.52;20.65;;;;;;;7.13;100.00;101030.34;5012456;28;20040;-70
2022/12/03 09:30:47;;;;;;;27.58;20.05;;;;;;;7.62;100.00;101086.13;5011455;28;20038;-70
2022/12/03 09:33:12;;;;;;;30.13;21.75;;;;;;;7.32;100.00;101092.78;5011806;28;20515;-69
2022/12/03 09:35:38;;;;;;;42.08;33.25;;;;;;;6.90;100.00;101010.91;5012124;28;20028;-70
2022/12/03 09:38:03;;;;;;;31.35;21.23;;;;;;;7.27;100.00;101082.63;5010575;28;20049;-69
2022/12/03 09:40:29;;;;;;;47.28;32.90;;;;;;;7.05;100.00;101042.13;5011534;28;20045;-69
2022/12/03 09:42:57;;;;;;;28.58;17.35;;;;;;;7.48;100.00;100994.16;5011841;28;20040;-70
2022/12/03 09:45:23;;;;;;;26.92;20.73;;;;;;;7.17;100.00;101093.56;5010458;28;20037;-69
2022/12/03 09:47:49;;;;;;;29.20;20.40;;;;;;;6.67;100.00;100991.44;5010166;28;20087;-70
2022/12/03 09:50:19;;;;;;;32.22;20.50;;;;;;;7.02;100.00;101032.84;5011467;28;20120;-70
2022/12/03 09:52:45;;;;;;;23.50;17.20;;;;;;;7.05;100.00;101058.16;5012490;28;20087;-70
2022/12/03 09:55:16;;;;;;;27.33;19.75;;;;;;;7.20;100.00;101037.94;5011237;28;20068;-70
2022/12/03 09:57:41;;;;;;;30.33;20.48;;;;;;;7.32;100.00;101052.31;5011795;28;20026;-70
2022/12/03 10:00:33;;;;;;;29.25;21.20;;;;;;;7.27;100.00;101074.22;5011988;28;20096;-70
2022/12/03 10:03:03;;;;;;;34.45;23.08;;;;;;;7.26;100.00;101027.00;5007835;28;20396;-70
2022/12/03 10:05:29;;;;;;;24.55;17.00;;;;;;;7.13;100.00;101065.75;5005844;28;20038;-69
2022/12/03 10:08:02;;;;;;;25.00;17.40;;;;;;;6.99;100.00;101028.59;5010848;28;20036;-70
2022/12/03 10:10:28;;;;;;;25.30;17.80;;;;;;;6.86;100.00;100995.72;5010412;28;20038;-70
2022/12/03 10:12:54;;;;;;;23.88;17.08;;;;;;;7.14;100.00;101021.91;5009390;28;20042;-71
2022/12/03 10:15:22;;;;;;;27.30;18.85;;;;;;;7.27;100.00;101031.25;5011729;28;20037;-70
2022/12/03 10:17:49;;;;;;;32.08;20.27;;;;;;;7.13;100.00;101003.34;5011594;28;20095;-69
2022/12/03 10:20:17;;;;;;;42.42;25.30;;;;;;;7.22;100.00;101003.41;5011341;28;20030;-71
2022/12/03 10:22:43;;;;;;;38.17;24.08;;;;;;;7.18;100.00;100988.22;5010468;28;20119;-70
2022/12/03 10:25:15;;;;;;;43.78;25.63;;;;;;;7.33;100.00;101000.91;5011581;28;20034;-70
2022/12/03 10:27:41;;;;;;;28.08;18.80;;;;;;;7.11;100.00;100953.66;5010339;28;20122;-72
2022/12/03 10:30:19;;;;;;;26.40;17.00;;;;;;;7.32;100.00;101017.75;5011501;28;20516;-70
2022/12/03 10:32:47;;;;;;;20.67;14.05;;;;;;;7.18;100.00;101016.03;5006718;28;20119;-71
2022/12/03 10:35:21;;;;;;;18.67;13.30;;;;;;;7.31;100.00;101020.28;5011853;28;20030;-71
2022/12/03 10:38:00;;;;;;;21.73;14.80;;;;;;;7.34;100.00;100990.78;5011531;28;20116;-72
2022/12/03 10:40:32;;;;;;;20.45;15.65;;;;;;;7.66;100.00;101028.75;5011812;28;20111;-72
2022/12/03 10:43:12;;;;;;;21.45;15.18;;;;;;;8.09;100.00;101045.63;5010916;28;20041;-71
2022/12/03 10:45:38;;;;;;;23.83;14.85;;;;;;;7.91;100.00;101030.44;5010840;28;20069;-72
2022/12/03 10:48:12;;;;;;;21.80;16.73;;;;;;;7.94;100.00;101038.06;5011565;28;20033;-71
2022/12/03 10:50:55;;;;;;;26.92;19.60;;;;;;;7.95;100.00;101047.31;5010006;28;20025;-71
2022/12/03 10:53:27;;;;;;;25.23;16.67;;;;;;;7.48;100.00;100991.63;5007832;28;20061;-71
2022/12/03 10:55:58;;;;;;;25.75;17.77;;;;;;;7.33;100.00;100945.25;5001598;28;20037;-71
2022/12/03 10:58:26;;;;;;;24.25;18.38;;;;;;;7.67;100.00;100987.41;5005856;28;20038;-71
2022/12/03 11:00:54;;;;;;;25.85;17.02;;;;;;;7.96;100.00;101032.97;4991092;28;20033;-69
2022/12/03 11:03:24;;;;;;;26.63;17.20;;;;;;;7.93;100.00;101036.34;5008478;28;20034;-69
2022/12/03 11:05:50;;;;;;;24.98;15.85;;;;;;;7.65;100.00;101037.19;5009601;28;20148;-69
2022/12/03 11:08:18;;;;;;;21.42;14.98;;;;;;;7.65;100.00;101038.03;5010704;28;20426;-70
2022/12/03 11:10:58;;;;;;;22.60;15.98;;;;;;;7.66;100.00;101038.88;5010796;28;20038;-69
2022/12/03 11:13:32;;;;;;;23.25;14.68;;;;;;;8.07;100.00;101029.59;5010842;28;20030;-73
2022/12/03 11:16:03;;;;;;;22.05;15.18;;;;;;;7.83;100.00;101027.06;5010484;28;20116;-70
2022/12/03 11:18:37;;;;;;;28.10;16.97;;;;;;;7.79;100.00;101020.31;5010812;28;20030;-69
2022/12/03 11:21:09;;;;;;;23.98;16.52;;;;;;;7.34;100.00;100968.03;5010537;28;20287;-70
2022/12/03 11:24:02;;;;;;;24.60;17.63;;;;;;;7.72;100.00;101024.56;5009243;28;20022;-68
2022/12/03 11:26:36;;;;;;;25.92;18.33;;;;;;;8.00;100.00;101027.94;5007126;28;20045;-68
2022/12/03 11:29:04;;;;;;;25.23;17.35;;;;;;;7.55;100.00;100980.66;5010699;28;20044;-68
2022/12/03 11:31:47;;;;;;;30.05;18.77;;;;;;;7.88;100.00;101020.34;5009852;28;20062;-68
2022/12/03 11:34:15;;;;;;;21.25;16.02;;;;;;;7.80;100.00;101027.09;5010319;28;20057;-69
2022/12/03 11:37:08;;;;;;;22.88;16.38;;;;;;;7.77;100.00;101027.91;5010300;28;20112;-68
2022/12/03 11:39:49;;;;;;;26.02;17.08;;;;;;;8.00;100.00;101027.06;5009953;28;20058;-69